Time;durP1;ratioP1;P1;durP2;ratioP2;P2;SDS_P1;SDS_P2;PMS_P1;PMS_P2;Temp;Humidity;BMP_temperature;BMP_pressure;BME280_temperature;BME280_humidity;BME280_pressure;Samples;Min_cycle;Max_cycle;Signal;HPM_P1;HPM_P2
2023/02/03 00:00:32;;;;;;;4.03;2.30;;;;;;;5.01;100.00;101778.13;5021808;28;20667;-73
2023/02/03 00:02:57;;;;;;;3.30;2.40;;;;;;;5.04;100.00;101777.41;5020514;28;20297;-72
2023/02/03 00:05:23;;;;;;;4.67;2.57;;;;;;;5.06;100.00;101778.38;5010328;28;20248;-73
2023/02/03 00:07:49;;;;;;;3.63;2.20;;;;;;;5.06;100.00;101771.63;5021960;28;20197;-73
2023/02/03 00:10:20;;;;;;;3.50;2.47;;;;;;;5.08;100.00;101780.22;5024856;28;20269;-73
2023/02/03 00:12:47;;;;;;;4.27;2.10;;;;;;;5.08;100.00;101775.16;5027696;28;20800;-73
2023/02/03 00:15:13;;;;;;;6.10;2.70;;;;;;;5.09;100.00;101769.28;5027578;28;20217;-74
2023/02/03 00:17:38;;;;;;;4.67;2.80;;;;;;;5.11;100.00;101766.81;5007620;28;20221;-73
2023/02/03 00:20:04;;;;;;;3.50;2.47;;;;;;;5.12;100.00;101760.94;5019312;28;20209;-73
2023/02/03 00:22:29;;;;;;;3.93;3.10;;;;;;;5.11;100.00;101759.22;5019073;28;20254;-74
2023/02/03 00:24:55;;;;;;;5.33;4.07;;;;;;;5.13;100.00;101763.59;5020311;28;20208;-73
2023/02/03 00:27:20;;;;;;;5.80;4.30;;;;;;;5.15;100.00;101751.84;5034567;28;20210;-74
2023/02/03 00:29:46;;;;;;;5.73;4.57;;;;;;;5.17;100.00;101736.69;5020155;28;20289;-74
2023/02/03 00:32:11;;;;;;;7.37;4.77;;;;;;;5.19;100.00;101740.19;5020830;28;20222;-73
2023/02/03 00:34:36;;;;;;;7.47;5.17;;;;;;;5.23;100.00;101739.56;5022263;28;20199;-74
2023/02/03 00:37:02;;;;;;;9.17;5.10;;;;;;;5.26;100.00;101743.16;5021377;28;20196;-73
2023/02/03 00:39:27;;;;;;;7.60;5.43;;;;;;;5.31;100.00;101739.22;5021956;28;20290;-74
2023/02/03 00:41:54;;;;;;;10.17;7.13;;;;;;;5.45;100.00;101734.88;5026954;28;20301;-74
2023/02/03 00:44:21;;;;;;;10.30;7.53;;;;;;;5.57;100.00;101712.69;5023088;28;20198;-74
2023/02/03 00:46:46;;;;;;;12.60;8.67;;;;;;;5.67;100.00;101714.91;5026258;28;20198;-73
2023/02/03 00:49:12;;;;;;;14.07;8.60;;;;;;;5.73;100.00;101713.56;5026434;28;20190;-74
2023/02/03 00:51:37;;;;;;;15.17;9.27;;;;;;;5.81;100.00;101719.91;5028084;28;20248;-74
2023/02/03 00:54:02;;;;;;;16.20;9.83;;;;;;;5.86;100.00;101715.09;5024752;28;20195;-73
2023/02/03 00:56:28;;;;;;;15.63;10.27;;;;;;;5.98;100.00;101713.19;5023441;28;20660;-73
2023/02/03 00:58:54;;;;;;;21.43;11.93;;;;;;;6.01;100.00;101706.59;5026653;28;20195;-74
2023/02/03 01:01:19;;;;;;;19.70;11.67;;;;;;;6.09;100.00;101700.25;5029135;28;20963;-73
2023/02/03 01:03:44;;;;;;;21.03;12.43;;;;;;;6.17;100.00;101698.09;5022924;28;20728;-73
2023/02/03 01:06:16;;;;;;;18.87;11.80;;;;;;;6.23;100.00;101699.25;5021370;28;20722;-74
2023/02/03 01:08:42;;;;;;;20.33;12.23;;;;;;;6.37;100.00;101690.66;5023009;28;20197;-74
2023/02/03 01:11:10;;;;;;;19.67;11.93;;;;;;;6.36;100.00;101685.50;5023587;28;20273;-74
2023/02/03 01:13:36;;;;;;;23.90;13.17;;;;;;;6.44;100.00;101684.19;5012553;28;20587;-74
2023/02/03 01:16:08;;;;;;;20.00;11.90;;;;;;;6.51;100.00;101678.59;5027427;28;20221;-73
2023/02/03 01:18:34;;;;;;;17.77;11.20;;;;;;;6.61;100.00;101666.41;5024499;28;20656;-74
2023/02/03 01:21:08;;;;;;;18.30;11.50;;;;;;;6.65;100.00;101660.66;5029652;28;20334;-73
2023/02/03 01:23:35;;;;;;;19.83;11.83;;;;;;;6.70;100.00;101658.31;5024299;28;20213;-73
2023/02/03 01:26:02;;;;;;;19.37;11.93;;;;;;;6.73;100.00;101654.25;5031415;28;20671;-74
2023/02/03 01:28:28;;;;;;;22.37;12.07;;;;;;;6.84;100.00;101640.38;5026318;28;20649;-74
2023/02/03 01:30:53;;;;;;;22.57;12.87;;;;;;;6.89;100.00;101638.03;5029229;28;20186;-74
2023/02/03 01:33:18;;;;;;;25.53;13.80;;;;;;;6.90;100.00;101620.28;5028024;28;20209;-74
2023/02/03 01:35:44;;;;;;;20.53;13.30;;;;;;;7.00;100.00;101627.53;5028693;28;21010;-74
2023/02/03 01:38:09;;;;;;;22.40;13.17;;;;;;;7.01;100.00;101611.44;5020934;28;20680;-73
2023/02/03 01:40:42;;;;;;;24.40;14.10;;;;;;;7.09;100.00;101616.94;5009375;28;20191;-74
2023/02/03 01:43:09;;;;;;;24.10;13.70;;;;;;;7.11;100.00;101606.00;5025885;28;20222;-74
2023/02/03 01:45:35;;;;;;;23.80;13.60;;;;;;;7.17;100.00;101610.47;5013304;28;20957;-74
2023/02/03 01:48:01;;;;;;;28.03;14.73;;;;;;;7.25;100.00;101604.06;5026900;28;20186;-73
2023/02/03 01:50:32;;;;;;;25.67;13.53;;;;;;;7.27;100.00;101574.47;5024385;28;20253;-73
2023/02/03 01:53:05;;;;;;;24.27;13.50;;;;;;;7.32;100.00;101568.75;5022601;28;20203;-74
2023/02/03 01:55:39;;;;;;;22.17;13.63;;;;;;;7.39;100.00;101572.44;5016910;28;20191;-73
2023/02/03 01:58:13;;;;;;;22.23;13.97;;;;;;;7.40;100.00;101561.44;5023028;28;20202;-74
2023/02/03 02:00:39;;;;;;;23.60;13.47;;;;;;;7.40;100.00;101556.34;5021759;28;20240;-73
2023/02/03 02:03:06;;;;;;;22.10;12.50;;;;;;;7.45;100.00;101560.81;5024343;28;20218;-73
2023/02/03 02:05:49;;;;;;;21.97;13.10;;;;;;;7.47;100.00;101558.34;5022879;28;20195;-74
2023/02/03 02:08:17;;;;;;;21.70;12.67;;;;;;;7.50;100.00;101561.91;5021933;28;20195;-74
2023/02/03 02:10:43;;;;;;;22.20;12.37;;;;;;;7.51;100.00;101566.19;5008825;28;20256;-74
2023/02/03 02:13:11;;;;;;;26.87;12.70;;;;;;;7.54;100.00;101570.53;5024151;28;20235;-74
2023/02/03 02:16:10;;;;;;;20.43;12.73;;;;;;;7.57;100.00;101563.91;5026868;28;20194;-74
2023/02/03 02:18:46;;;;;;;20.60;10.87;;;;;;;7.61;100.00;101557.25;5025587;28;20824;-74
2023/02/03 02:21:29;;;;;;;17.90;11.00;;;;;;;7.62;100.00;101551.34;5022902;23;20239;-73
2023/02/03 02:24:09;;;;;;;19.60;10.73;;;;;;;7.66;100.00;101554.13;5009714;28;20249;-73
2023/02/03 02:26:47;;;;;;;18.83;10.40;;;;;;;7.67;100.00;101552.41;5026656;28;20219;-72
2023/02/03 02:29:31;;;;;;;16.73;10.90;;;;;;;7.69;100.00;101568.66;5009713;28;20259;-73
2023/02/03 02:32:23;;;;;;;18.47;10.40;;;;;;;7.70;100.00;101561.06;5028298;28;20206;-73
2023/02/03 02:35:18;;;;;;;23.33;9.73;;;;;;;7.69;100.00;101543.19;4975735;28;20229;-73
2023/02/03 02:37:52;;;;;;;14.73;9.27;;;;;;;7.70;100.00;101529.63;5000142;28;20203;-72
2023/02/03 02:40:46;;;;;;;21.63;10.23;;;;;;;7.71;100.00;101522.03;5009065;28;20234;-73
2023/02/03 02:43:39;;;;;;;19.87;9.77;;;;;;;7.72;100.00;101528.88;5028724;28;20203;-73
2023/02/03 02:46:16;;;;;;;15.20;8.97;;;;;;;7.74;100.00;101532.34;5004847;28;20209;-73
2023/02/03 02:49:00;;;;;;;15.50;8.83;;;;;;;7.74;100.00;101521.28;4992996;28;20195;-73
2023/02/03 02:51:30;;;;;;;14.03;8.77;;;;;;;7.75;100.00;101526.47;5013743;28;20305;-73
2023/02/03 02:54:00;;;;;;;15.37;9.33;;;;;;;7.76;100.00;101523.09;5020490;28;20230;-73
2023/02/03 02:56:29;;;;;;;11.70;8.47;;;;;;;7.75;100.00;101523.03;5022483;28;20202;-73
2023/02/03 02:58:56;;;;;;;13.07;7.60;;;;;;;7.74;100.00;101521.28;5011074;28;20278;-72
2023/02/03 03:01:22;;;;;;;14.43;7.73;;;;;;;7.75;100.00;101535.78;5024424;28;20223;-71
2023/02/03 03:03:47;;;;;;;11.83;7.77;;;;;;;7.76;100.00;101528.19;5025788;28;20194;-73
2023/02/03 03:06:19;;;;;;;13.70;8.10;;;;;;;7.78;100.00;101524.03;5009193;28;20679;-74
2023/02/03 03:09:26;;;;;;;12.57;8.10;;;;;;;7.79;100.00;101502.81;5005606;28;20744;-71
2023/02/03 03:11:59;;;;;;;9.13;7.47;;;;;;;7.77;100.00;101504.44;4951661;28;20200;-73
2023/02/03 03:14:28;;;;;;;14.73;7.50;;;;;;;7.77;100.00;101508.66;5004414;28;20267;-72
2023/02/03 03:16:59;;;;;;;11.90;7.50;;;;;;;7.78;100.00;101505.31;5032438;28;20195;-73
2023/02/03 03:19:31;;;;;;;14.43;7.53;;;;;;;7.82;100.00;101499.50;5014404;28;20353;-72
2023/02/03 03:22:02;;;;;;;12.73;6.50;;;;;;;7.84;100.00;101496.22;5011224;28;20302;-72
2023/02/03 03:24:35;;;;;;;12.10;6.50;;;;;;;7.84;100.00;101486.03;5005152;28;20203;-72
2023/02/03 03:27:09;;;;;;;12.73;6.60;;;;;;;7.82;100.00;101468.91;5013430;28;20678;-73
2023/02/03 03:29:59;;;;;;;13.17;6.53;;;;;;;7.85;100.00;101471.59;5009684;28;20268;-72
2023/02/03 03:32:26;;;;;;;11.63;5.93;;;;;;;7.85;100.00;101466.50;5010510;28;23527;-73
2023/02/03 03:34:53;;;;;;;9.27;5.70;;;;;;;7.86;100.00;101466.56;5015372;28;20199;-73
2023/02/03 03:37:35;;;;;;;8.23;5.50;;;;;;;7.88;100.00;101454.75;5011535;28;20194;-73
2023/02/03 03:40:11;;;;;;;9.60;5.13;;;;;;;7.88;100.00;101457.28;5001182;28;20260;-73
2023/02/03 03:43:05;;;;;;;11.43;6.10;;;;;;;7.89;100.00;101453.06;5011972;28;20206;-71
2023/02/03 03:45:39;;;;;;;14.00;5.67;;;;;;;7.92;100.00;101448.13;5011895;28;20199;-73
2023/02/03 03:48:14;;;;;;;8.53;5.47;;;;;;;7.99;100.00;101434.78;5007455;28;20211;-73
2023/02/03 03:50:45;;;;;;;7.90;4.97;;;;;;;7.96;100.00;101422.78;5013474;28;20400;-72
2023/02/03 03:53:14;;;;;;;11.77;5.50;;;;;;;7.97;100.00;101423.66;5010901;28;20195;-72
2023/02/03 03:55:41;;;;;;;9.80;5.50;;;;;;;7.95;100.00;101433.78;5010636;28;20214;-71
2023/02/03 03:58:11;;;;;;;7.37;4.97;;;;;;;7.96;100.00;101432.97;5008128;28;20222;-73
2023/02/03 04:00:40;;;;;;;9.87;4.73;;;;;;;8.00;100.00;101431.41;5009121;28;20222;-73
2023/02/03 04:03:21;;;;;;;13.67;4.80;;;;;;;7.98;100.00;101430.50;5023515;28;20198;-73
2023/02/03 04:05:47;;;;;;;12.80;4.90;;;;;;;8.01;100.00;101430.63;5010831;28;20281;-71
2023/02/03 04:08:13;;;;;;;8.83;4.47;;;;;;;8.03;100.00;101437.53;5010548;28;20290;-73
2023/02/03 04:10:40;;;;;;;7.47;4.50;;;;;;;8.05;100.00;101429.91;5008258;28;20226;-73
2023/02/03 04:13:08;;;;;;;7.77;4.90;;;;;;;8.03;100.00;101422.22;5007903;28;20237;-72
2023/02/03 04:15:33;;;;;;;10.90;4.73;;;;;;;8.04;100.00;101415.41;5006183;28;20462;-73
2023/02/03 04:18:02;;;;;;;11.20;5.73;;;;;;;8.00;100.00;101414.44;5031033;28;20281;-73
2023/02/03 04:20:29;;;;;;;11.27;5.97;;;;;;;7.98;100.00;101405.88;5011555;28;20234;-73
2023/02/03 04:22:55;;;;;;;14.07;5.90;;;;;;;7.99;100.00;101415.25;5009751;28;20421;-73
2023/02/03 04:25:21;;;;;;;8.13;5.80;;;;;;;7.99;100.00;101392.31;5010950;28;20249;-73
2023/02/03 04:27:47;;;;;;;8.57;5.30;;;;;;;8.02;100.00;101400.06;5014168;28;20190;-73
2023/02/03 04:30:12;;;;;;;8.93;5.60;;;;;;;7.97;100.00;101378.63;5013355;28;20284;-73
2023/02/03 04:32:38;;;;;;;8.57;4.70;;;;;;;7.99;100.00;101381.22;5008920;28;20241;-73
2023/02/03 04:35:05;;;;;;;9.27;5.53;;;;;;;7.99;100.00;101377.00;5016306;28;20195;-72
2023/02/03 04:37:31;;;;;;;10.20;4.80;;;;;;;7.96;100.00;101374.34;5026923;28;20672;-73
2023/02/03 04:39:57;;;;;;;9.27;4.60;;;;;;;7.96;100.00;101371.78;5009803;28;20307;-72
2023/02/03 04:42:23;;;;;;;9.60;4.70;;;;;;;7.94;100.00;101370.88;5004184;28;20306;-72
2023/02/03 04:44:48;;;;;;;9.50;4.97;;;;;;;7.93;100.00;101365.72;5026097;28;20199;-72
2023/02/03 04:47:15;;;;;;;8.53;4.67;;;;;;;7.91;100.00;101362.22;5008264;28;20198;-73
2023/02/03 04:49:40;;;;;;;7.17;4.57;;;;;;;7.89;100.00;101374.03;5001554;28;20218;-73
2023/02/03 04:52:06;;;;;;;9.70;4.77;;;;;;;7.88;100.00;101385.91;5004533;28;20195;-73
2023/02/03 04:54:31;;;;;;;6.20;4.20;;;;;;;7.86;100.00;101379.00;5007944;28;20223;-73
2023/02/03 04:56:57;;;;;;;5.97;3.80;;;;;;;7.86;100.00;101379.00;5010345;28;20191;-73
2023/02/03 04:59:22;;;;;;;5.00;3.90;;;;;;;7.84;100.00;101380.66;5011155;28;20196;-72
2023/02/03 05:01:48;;;;;;;5.70;4.20;;;;;;;7.84;100.00;101381.50;5003031;28;20294;-72
2023/02/03 05:04:13;;;;;;;8.33;4.27;;;;;;;7.84;100.00;101373.00;5013740;28;20198;-73
2023/02/03 05:06:38;;;;;;;7.10;4.50;;;;;;;7.82;100.00;101379.69;5011696;28;20241;-72
2023/02/03 05:09:04;;;;;;;9.03;5.03;;;;;;;7.86;100.00;101361.16;5015913;28;20232;-74
2023/02/03 05:11:30;;;;;;;6.73;4.43;;;;;;;7.87;100.00;101345.09;5008644;28;20211;-73
2023/02/03 05:13:55;;;;;;;10.20;5.13;;;;;;;7.87;100.00;101342.53;5010333;28;20191;-72
2023/02/03 05:16:21;;;;;;;9.07;4.77;;;;;;;7.86;100.00;101333.13;5010439;28;20230;-72
2023/02/03 05:18:46;;;;;;;10.83;4.77;;;;;;;7.87;100.00;101335.75;5012957;28;20687;-73
2023/02/03 05:21:12;;;;;;;8.10;5.50;;;;;;;7.86;100.00;101326.38;5012662;28;20229;-72
2023/02/03 05:23:37;;;;;;;9.63;4.93;;;;;;;7.87;100.00;101332.34;5010632;28;20212;-71
2023/02/03 05:26:03;;;;;;;9.13;5.63;;;;;;;7.84;100.00;101312.66;5008470;28;20260;-73
2023/02/03 05:28:28;;;;;;;11.03;6.07;;;;;;;7.85;100.00;101301.69;5008832;28;20195;-73
2023/02/03 05:30:57;;;;;;;11.43;5.73;;;;;;;7.83;100.00;101297.34;5026111;28;20760;-73
2023/02/03 05:33:22;;;;;;;7.47;5.33;;;;;;;7.82;100.00;101293.91;5010200;28;20206;-73
2023/02/03 05:35:48;;;;;;;8.87;5.00;;;;;;;7.83;100.00;101299.91;5011981;28;20195;-73
2023/02/03 05:38:13;;;;;;;11.17;6.33;;;;;;;7.83;100.00;101299.91;5023782;28;20207;-73
2023/02/03 05:43:22;;;;;;;8.57;5.10;;;;;;;7.87;100.00;101301.75;5008410;28;20211;-72
2023/02/03 05:45:48;;;;;;;12.60;5.40;;;;;;;7.88;100.00;101295.84;5008551;28;20187;-72
2023/02/03 05:48:13;;;;;;;12.07;5.73;;;;;;;7.88;100.00;101293.28;5012210;28;20198;-72
2023/02/03 05:50:38;;;;;;;8.87;5.37;;;;;;;7.86;100.00;101298.31;5010901;28;20230;-72
2023/02/03 05:53:07;;;;;;;11.40;5.40;;;;;;;7.88;100.00;101299.22;5015902;28;20217;-75
2023/02/03 05:55:33;;;;;;;9.13;5.10;;;;;;;7.86;100.00;101297.44;5017467;28;21789;-72
2023/02/03 05:57:59;;;;;;;8.13;4.90;;;;;;;7.87;100.00;101286.47;5012693;28;20206;-72
2023/02/03 06:00:26;;;;;;;7.83;5.10;;;;;;;7.87;100.00;101284.75;5014911;28;20281;-72
2023/02/03 06:02:52;;;;;;;10.40;4.73;;;;;;;7.88;100.00;101267.78;5009351;28;20215;-72
2023/02/03 06:05:18;;;;;;;11.67;5.07;;;;;;;7.88;100.00;101285.63;5009652;28;20285;-72
2023/02/03 06:07:44;;;;;;;8.23;3.90;;;;;;;7.89;100.00;101272.06;5009945;28;20190;-72
2023/02/03 06:10:09;;;;;;;11.30;5.00;;;;;;;7.88;100.00;101275.44;5015176;28;20748;-72
2023/02/03 06:12:36;;;;;;;9.47;4.30;;;;;;;7.88;100.00;101267.78;5013200;28;20179;-74
2023/02/03 06:15:02;;;;;;;8.43;4.37;;;;;;;7.91;100.00;101265.34;5011375;28;20202;-72
2023/02/03 06:17:27;;;;;;;9.67;4.00;;;;;;;7.91;100.00;101260.22;5013662;28;20249;-72
2023/02/03 06:19:53;;;;;;;9.00;4.83;;;;;;;7.91;100.00;101263.66;5012542;28;20222;-71
2023/02/03 06:22:18;;;;;;;8.23;4.37;;;;;;;7.91;100.00;101258.56;5011507;28;20225;-72
2023/02/03 06:24:45;;;;;;;8.90;4.40;;;;;;;7.89;100.00;101256.78;5012535;28;20195;-72
2023/02/03 06:27:10;;;;;;;9.40;4.63;;;;;;;7.89;100.00;101252.56;5011453;28;20238;-73
2023/02/03 06:29:36;;;;;;;6.30;4.30;;;;;;;7.88;100.00;101242.31;5008071;28;20250;-72
2023/02/03 06:32:01;;;;;;;8.37;4.17;;;;;;;7.88;100.00;101240.59;5009695;28;20286;-72
2023/02/03 06:34:27;;;;;;;6.97;3.90;;;;;;;7.86;100.00;101236.25;5009860;28;20201;-72
2023/02/03 06:36:52;;;;;;;6.37;3.87;;;;;;;7.87;100.00;101243.13;5009704;28;20599;-75
2023/02/03 06:39:18;;;;;;;9.30;3.77;;;;;;;7.88;100.00;101229.56;5025920;28;20619;-71
2023/02/03 06:41:43;;;;;;;8.60;3.67;;;;;;;7.87;100.00;101240.56;5007476;28;20273;-72
2023/02/03 06:44:08;;;;;;;7.87;3.33;;;;;;;7.81;100.00;101227.56;5017829;28;20198;-72
2023/02/03 06:46:34;;;;;;;7.70;3.37;;;;;;;7.86;100.00;101229.50;5016114;28;20198;-72
2023/02/03 06:48:59;;;;;;;6.40;3.23;;;;;;;7.86;100.00;101224.38;5029504;28;20285;-72
2023/02/03 06:51:25;;;;;;;5.37;3.23;;;;;;;7.86;100.00;101231.16;5010748;28;20203;-72
2023/02/03 06:53:50;;;;;;;4.93;3.90;;;;;;;7.87;100.00;101231.22;5011612;28;20629;-73
2023/02/03 06:56:16;;;;;;;8.03;3.60;;;;;;;7.87;100.00;101227.81;5010333;28;20199;-72
2023/02/03 06:58:41;;;;;;;9.63;3.43;;;;;;;7.86;100.00;101226.94;5010298;28;20191;-73
2023/02/03 07:01:07;;;;;;;8.27;3.37;;;;;;;7.91;100.00;101214.34;5013684;28;20309;-72
2023/02/03 07:03:32;;;;;;;8.90;3.93;;;;;;;7.89;100.00;101210.88;5010488;28;20297;-72
2023/02/03 07:05:57;;;;;;;8.07;3.27;;;;;;;7.88;100.00;101211.72;5027391;28;20203;-72
2023/02/03 07:08:23;;;;;;;9.23;3.63;;;;;;;7.91;100.00;101204.16;5027954;28;20226;-72
2023/02/03 07:10:53;;;;;;;6.63;3.33;;;;;;;7.93;100.00;101212.75;5012312;28;20731;-71
2023/02/03 07:13:18;;;;;;;6.60;3.23;;;;;;;7.95;100.00;101208.53;5005311;28;20585;-71
2023/02/03 07:15:44;;;;;;;8.03;3.20;;;;;;;7.95;100.00;101204.31;5010613;28;20286;-75
2023/02/03 07:18:09;;;;;;;9.03;4.00;;;;;;;7.99;100.00;101201.06;4993791;28;20995;-72
2023/02/03 07:20:35;;;;;;;9.37;3.50;;;;;;;8.02;100.00;101201.16;5027023;28;20251;-73
2023/02/03 07:23:00;;;;;;;7.00;4.10;;;;;;;8.07;100.00;101181.78;5008834;28;20788;-72
2023/02/03 07:25:26;;;;;;;9.10;3.93;;;;;;;8.06;100.00;101185.16;5007375;28;20269;-73
2023/02/03 07:27:52;;;;;;;10.60;4.33;;;;;;;8.06;100.00;101179.22;5010835;28;20549;-72
2023/02/03 07:30:18;;;;;;;9.80;4.10;;;;;;;8.06;100.00;101180.06;5009347;28;20285;-72
2023/02/03 07:32:51;;;;;;;5.67;3.87;;;;;;;8.13;100.00;101176.03;5021380;28;20194;-72
2023/02/03 07:35:17;;;;;;;6.93;3.80;;;;;;;8.12;100.00;101174.31;5012660;28;20233;-72
2023/02/03 07:37:43;;;;;;;7.40;4.33;;;;;;;8.13;100.00;101170.94;5016686;28;20209;-72
2023/02/03 07:40:11;;;;;;;8.83;4.37;;;;;;;8.20;100.00;101183.09;5015063;28;20218;-75
2023/02/03 07:42:41;;;;;;;10.10;3.63;;;;;;;8.17;100.00;101177.88;5028370;28;20702;-71
2023/02/03 07:45:07;;;;;;;10.33;4.20;;;;;;;8.15;100.00;101177.81;5030350;28;20194;-72
2023/02/03 07:47:32;;;;;;;10.73;3.37;;;;;;;8.17;100.00;101185.53;5014612;28;20664;-72
2023/02/03 07:49:58;;;;;;;9.73;3.63;;;;;;;8.18;100.00;101180.50;5016506;28;20213;-72
2023/02/03 07:52:23;;;;;;;10.10;3.50;;;;;;;8.22;100.00;101184.03;5010510;28;20242;-72
2023/02/03 07:54:48;;;;;;;15.53;3.37;;;;;;;8.20;100.00;101181.44;5014048;28;20190;-73
2023/02/03 07:57:14;;;;;;;9.00;3.47;;;;;;;8.23;100.00;101173.91;5013974;28;20315;-72
2023/02/03 07:59:39;;;;;;;11.67;3.40;;;;;;;8.24;100.00;101167.13;5008963;28;20594;-71
2023/02/03 08:02:05;;;;;;;11.37;3.17;;;;;;;8.26;100.00;101178.22;5012469;28;20249;-72
2023/02/03 08:04:30;;;;;;;8.53;3.23;;;;;;;8.28;100.00;101174.91;5011158;28;20293;-73
2023/02/03 08:06:55;;;;;;;7.63;2.93;;;;;;;8.33;100.00;101172.50;5011321;28;20265;-72
2023/02/03 08:09:21;;;;;;;11.43;2.90;;;;;;;8.32;100.00;101180.97;5005893;28;20191;-72
2023/02/03 08:11:47;;;;;;;13.33;3.67;;;;;;;8.37;100.00;101187.97;5002242;28;20231;-72
2023/02/03 08:14:12;;;;;;;12.17;3.00;;;;;;;8.37;100.00;101190.53;5006723;28;20211;-72
2023/02/03 08:16:38;;;;;;;8.10;3.00;;;;;;;8.41;100.00;101183.84;5005689;28;20196;-72
2023/02/03 08:19:04;;;;;;;10.10;3.30;;;;;;;8.40;100.00;101195.75;5003299;28;20192;-73
2023/02/03 08:21:30;;;;;;;11.47;3.20;;;;;;;8.43;100.00;101206.03;5007566;28;20234;-72
2023/02/03 08:23:55;;;;;;;9.00;3.43;;;;;;;8.42;100.00;101199.19;5013526;28;20211;-72
2023/02/03 08:26:21;;;;;;;9.60;3.90;;;;;;;8.44;100.00;101220.53;5017717;28;20336;-72
2023/02/03 08:28:50;;;;;;;8.67;2.97;;;;;;;8.46;100.00;101223.13;5019878;28;20187;-72
2023/02/03 08:31:16;;;;;;;8.93;3.17;;;;;;;8.45;100.00;101257.13;5004067;28;20219;-72
2023/02/03 08:33:41;;;;;;;13.20;3.43;;;;;;;8.42;100.00;101285.06;5012471;28;20242;-72
2023/02/03 08:36:07;;;;;;;11.50;2.70;;;;;;;8.23;100.00;101260.63;5010289;28;20242;-72
2023/02/03 08:38:33;;;;;;;12.30;2.80;;;;;;;8.13;100.00;101285.69;5008810;28;20265;-71
2023/02/03 08:40:58;;;;;;;12.03;3.00;;;;;;;7.98;100.00;101246.91;5031036;28;20219;-72
2023/02/03 08:43:24;;;;;;;9.07;2.60;;;;;;;8.00;100.00;101235.94;5012310;28;20206;-72
2023/02/03 08:45:49;;;;;;;9.13;2.37;;;;;;;8.06;100.00;101251.47;5013481;28;20261;-72
2023/02/03 08:48:15;;;;;;;10.60;2.20;;;;;;;8.06;100.00;101263.34;5011188;28;20197;-72
2023/02/03 08:50:41;;;;;;;8.80;2.23;;;;;;;8.13;100.00;101266.19;5007499;28;20711;-74
2023/02/03 08:53:07;;;;;;;8.70;2.10;;;;;;;8.16;100.00;101276.47;5008395;28;20186;-74
2023/02/03 08:55:33;;;;;;;16.40;2.93;;;;;;;8.21;100.00;101284.34;5008931;28;20195;-71
2023/02/03 08:57:59;;;;;;;15.23;3.10;;;;;;;8.27;100.00;101276.91;5008185;28;20304;-72
2023/02/03 09:00:25;;;;;;;20.40;3.47;;;;;;;8.29;100.00;101276.13;5005366;28;20214;-72
2023/02/03 09:02:50;;;;;;;20.93;4.10;;;;;;;8.32;100.00;101288.13;5008242;28;20214;-75
2023/02/03 09:05:17;;;;;;;24.60;4.17;;;;;;;8.35;100.00;101291.69;5004355;28;20200;-73
2023/02/03 09:07:43;;;;;;;23.80;4.27;;;;;;;8.36;100.00;101287.41;5004853;28;20231;-73
2023/02/03 09:10:09;;;;;;;25.13;5.17;;;;;;;8.32;100.00;101278.81;4985486;28;20215;-71
2023/02/03 09:12:35;;;;;;;19.47;4.50;;;;;;;8.38;100.00;101266.25;5006342;28;20192;-72
2023/02/03 09:15:00;;;;;;;27.93;4.77;;;;;;;8.40;100.00;101256.97;5010267;28;20245;-73
2023/02/03 09:17:26;;;;;;;19.87;5.30;;;;;;;8.42;100.00;101270.66;5007390;28;20225;-74
2023/02/03 09:19:52;;;;;;;21.43;4.80;;;;;;;8.43;100.00;101281.72;5010088;28;20253;-73
2023/02/03 09:22:18;;;;;;;28.27;5.03;;;;;;;8.44;100.00;101283.47;5010545;28;20234;-73
2023/02/03 09:24:43;;;;;;;17.83;4.57;;;;;;;8.41;100.00;101291.88;5012376;28;20725;-73
2023/02/03 09:27:09;;;;;;;28.17;6.13;;;;;;;8.45;100.00;101292.84;4998333;28;20195;-71
2023/02/03 09:29:34;;;;;;;24.80;4.83;;;;;;;8.46;100.00;101295.47;5006648;28;20227;-73
2023/02/03 09:32:05;;;;;;;26.50;4.90;;;;;;;8.50;100.00;101298.97;5005371;28;20237;-73
2023/02/03 09:34:31;;;;;;;23.00;4.90;;;;;;;8.45;100.00;101296.28;5011975;28;20195;-72
2023/02/03 09:36:56;;;;;;;21.97;5.13;;;;;;;8.46;100.00;101290.34;5008311;28;20648;-71
2023/02/03 09:39:22;;;;;;;24.67;4.70;;;;;;;8.42;100.00;101270.66;5005387;28;20214;-73
2023/02/03 09:42:07;;;;;;;30.87;5.40;;;;;;;8.50;100.00;101288.78;5024562;28;20214;-71
2023/02/03 09:45:13;;;;;;;25.27;4.87;;;;;;;8.53;100.00;101299.94;5007035;28;20278;-74
2023/02/03 09:47:42;;;;;;;26.00;4.63;;;;;;;8.52;100.00;101298.22;5008236;28;20241;-73
2023/02/03 09:50:20;;;;;;;29.03;6.27;;;;;;;8.51;100.00;101309.25;5007592;28;20215;-73
2023/02/03 09:52:47;;;;;;;27.57;4.97;;;;;;;8.50;100.00;101312.63;5003551;28;20218;-73
2023/02/03 09:55:26;;;;;;;25.80;6.00;;;;;;;8.46;100.00;101317.53;5008855;28;20210;-73
2023/02/03 09:58:07;;;;;;;29.50;6.60;;;;;;;8.49;100.00;101338.06;5006582;28;20195;-73
2023/02/03 10:00:41;;;;;;;33.87;6.63;;;;;;;8.48;100.00;101331.25;5004274;28;20235;-73
2023/02/03 10:03:06;;;;;;;45.87;7.77;;;;;;;8.52;100.00;101340.75;5009977;28;20221;-73
2023/02/03 10:05:41;;;;;;;29.73;6.83;;;;;;;8.58;100.00;101346.94;5010472;28;20207;-73
2023/02/03 10:08:26;;;;;;;28.83;6.70;;;;;;;8.71;100.00;101348.22;5007237;28;20206;-73
2023/02/03 10:11:08;;;;;;;35.27;7.33;;;;;;;8.88;100.00;101358.19;4990698;28;20687;-75
2023/02/03 10:13:53;;;;;;;40.67;7.67;;;;;;;9.06;100.00;101351.16;5000733;28;20205;-75
2023/02/03 10:16:46;;;;;;;35.67;6.90;;;;;;;9.21;100.00;101343.16;5006679;28;20199;-75
2023/02/03 10:19:19;;;;;;;36.87;8.13;;;;;;;9.01;100.00;101351.81;5012883;28;20293;-75
2023/02/03 10:21:58;;;;;;;42.23;8.37;;;;;;;8.96;100.00;101369.56;5006838;28;20303;-75
2023/02/03 10:24:38;;;;;;;43.13;8.13;;;;;;;8.93;100.00;101368.56;5007919;28;20281;-75
2023/02/03 10:27:13;;;;;;;38.43;7.43;;;;;;;9.01;100.00;101370.56;5021944;28;20203;-74
2023/02/03 10:29:42;;;;;;;47.43;8.17;;;;;;;9.05;100.00;101371.53;5004570;28;20269;-75
2023/02/03 10:32:11;;;;;;;46.37;7.73;;;;;;;8.94;100.00;101370.31;5018201;28;20786;-75
2023/02/03 10:34:37;;;;;;;36.93;7.60;;;;;;;8.83;100.00;101371.63;5018866;28;20541;-75
2023/02/03 10:37:24;;;;;;;43.00;8.07;;;;;;;8.77;100.00;101392.72;5005159;28;20245;-75
2023/02/03 10:39:51;;;;;;;40.50;8.43;;;;;;;8.81;100.00;101371.56;5002257;28;20261;-75
2023/02/03 10:42:18;;;;;;;39.90;7.43;;;;;;;8.77;100.00;101382.50;5004692;28;20297;-74
2023/02/03 10:44:47;;;;;;;41.30;7.77;;;;;;;8.78;100.00;101406.34;5005194;28;20207;-75
2023/02/03 10:47:22;;;;;;;38.07;7.30;;;;;;;8.77;100.00;101400.38;5005845;28;20206;-75
2023/02/03 10:49:51;;;;;;;53.23;8.63;;;;;;;8.92;100.00;101410.25;5019347;28;20262;-74
2023/02/03 10:52:25;;;;;;;33.70;7.17;;;;;;;8.84;100.00;101409.97;5003442;28;20191;-74
2023/02/03 10:54:51;;;;;;;36.77;7.93;;;;;;;8.95;100.00;101402.69;5000645;28;20199;-75
2023/02/03 10:57:16;;;;;;;39.97;8.27;;;;;;;9.14;100.00;101431.50;5006095;28;20726;-74
2023/02/03 10:59:46;;;;;;;34.70;7.80;;;;;;;9.01;100.00;101425.88;5009185;28;20223;-75
2023/02/03 11:02:24;;;;;;;32.67;7.60;;;;;;;8.92;100.00;101395.78;4995195;28;20215;-75
2023/02/03 11:05:25;;;;;;;38.90;8.23;;;;;;;9.03;100.00;101443.00;5008079;28;20203;-75
2023/02/03 11:07:52;;;;;;;40.57;7.50;;;;;;;9.20;100.00;101423.13;5007774;28;20281;-75
2023/02/03 11:10:36;;;;;;;38.93;7.23;;;;;;;9.40;100.00;101422.13;5009230;28;20855;-75
2023/02/03 11:13:20;;;;;;;43.03;7.40;;;;;;;9.38;100.00;101427.19;5008907;28;20199;-75
2023/02/03 11:15:54;;;;;;;40.07;7.53;;;;;;;9.18;100.00;101435.88;5005531;28;20203;-75
2023/02/03 11:18:32;;;;;;;43.33;8.30;;;;;;;8.98;100.00;101424.09;5006217;28;20213;-74
2023/02/03 11:20:58;;;;;;;42.60;8.37;;;;;;;8.97;100.00;101445.34;5005570;28;20222;-75
2023/02/03 11:23:24;;;;;;;41.40;8.23;;;;;;;9.05;100.00;101449.03;5004992;28;20604;-75
2023/02/03 11:25:50;;;;;;;37.03;7.50;;;;;;;9.09;100.00;101432.13;5002082;28;20202;-75
2023/02/03 11:28:16;;;;;;;37.30;7.13;;;;;;;9.53;100.00;101429.38;5007569;28;20257;-75
2023/02/03 11:30:42;;;;;;;46.83;8.70;;;;;;;9.34;100.00;101437.25;5017449;28;20212;-75